Terminal Aerodrome Forecast
Issued by NWS Tampa Bay Area, FL

Home | Current Version | Previous Version | Text Only | Print | Product List | Glossary On
Versions: 1 2 3 4 5 6 7 8 9 10 11 12 13 14 15
000
FTUS42 KTBW 312343
TAFSRQ
TAF
KSRQ 312343Z 0100/0124 18008KT P6SM VCTS SCT025 BKN050CB BKN090
      TEMPO 0100/0102 VRB15G25KT 4SM TSRA BR BKN025CB
     FM010300 16008KT P6SM VCSH SCT035 BKN250
     FM011500 21009KT P6SM VCTS SCT025CB BKN100 BKN250=

USA.gov is the U.S. government's official web portal to all federal, state and local government web resources and services.